createdAt,value
2018-01-01T02:07:16.720Z,17.07
2018-01-01T02:09:44.433Z,16.57
2018-01-01T02:12:12.253Z,16.27
2018-01-01T02:14:42.764Z,14.10
2018-01-01T02:17:10.744Z,16.30
2018-01-01T02:19:38.519Z,15.00
2018-01-01T02:22:06.730Z,16.13
2018-01-01T02:24:34.552Z,15.77
2018-01-01T02:27:02.316Z,16.37
2018-01-01T02:29:30.068Z,19.60
2018-01-01T02:31:57.919Z,15.00
2018-01-01T02:34:28.318Z,14.10
2018-01-01T02:36:56.486Z,11.90
2018-01-01T02:39:25.859Z,13.23
2018-01-01T02:41:54.651Z,13.13
2018-01-01T02:44:23.220Z,10.27
2018-01-01T02:46:50.936Z,9.97
2018-01-01T02:49:18.840Z,9.80
2018-01-01T02:51:50.280Z,10.17
2018-01-01T02:54:19.658Z,9.30
2018-01-01T02:56:51.648Z,9.37
2018-01-01T02:59:20.811Z,8.90
2018-01-01T03:01:49.890Z,7.83
2018-01-01T03:04:18.492Z,7.90
2018-01-01T03:06:49.484Z,6.50
2018-01-01T03:09:19.152Z,5.80
2018-01-01T03:11:48.116Z,5.23
2018-01-01T03:14:17.055Z,4.00
2018-01-01T03:16:46.234Z,4.47
2018-01-01T03:19:16.472Z,3.87
2018-01-01T03:21:44.483Z,2.93
2018-01-01T03:24:12.776Z,3.07
2018-01-01T03:26:40.524Z,2.73
2018-01-01T03:29:08.352Z,2.97
2018-01-01T03:31:39.083Z,3.30
2018-01-01T03:34:06.870Z,2.43
2018-01-01T03:36:35.788Z,2.50
2018-01-01T03:39:03.756Z,2.10
2018-01-01T03:42:08.183Z,3.60
2018-01-01T03:44:42.069Z,2.40
2018-01-01T03:47:12.535Z,1.73
2018-01-01T03:49:48.012Z,2.27
2018-01-01T03:52:17.913Z,1.57
2018-01-01T03:54:50.495Z,2.00
2018-01-01T03:57:21.067Z,1.60
2018-01-01T04:02:25.290Z,1.37
2018-01-01T04:04:57.634Z,1.87
2018-01-01T04:07:30.388Z,1.40
2018-01-01T04:10:07.124Z,1.67
2018-01-01T04:12:37.730Z,1.87
2018-01-01T04:15:05.788Z,3.07
2018-01-01T04:17:33.586Z,1.87
2018-01-01T04:20:01.671Z,1.83
2018-01-01T04:22:33.293Z,1.93
2018-01-01T04:25:02.694Z,1.60
2018-01-01T04:27:30.561Z,2.97
2018-01-01T04:29:59.324Z,2.07
2018-01-01T04:32:28.003Z,1.80
2018-01-01T04:34:55.787Z,1.53
2018-01-01T04:37:23.679Z,2.57
2018-01-01T04:39:55.055Z,2.10
2018-01-01T04:42:28.936Z,1.53
2018-01-01T04:44:59.710Z,1.77
2018-01-01T04:47:27.572Z,1.87
2018-01-01T04:49:56.206Z,1.90
2018-01-01T04:52:25.581Z,2.03
2018-01-01T04:55:05.934Z,2.23
2018-01-01T04:57:33.839Z,2.00
2018-01-01T05:00:03.206Z,3.20
2018-01-01T05:02:38.833Z,1.70
2018-01-01T05:05:06.651Z,1.33
2018-01-01T05:07:38.676Z,1.60
2018-01-01T05:10:09.370Z,1.70
2018-01-01T05:12:45.985Z,1.60
2018-01-01T05:15:25.308Z,1.93
2018-01-01T05:17:56.220Z,2.17
2018-01-01T05:20:32.678Z,1.83
2018-01-01T05:23:09.357Z,2.80
2018-01-01T05:25:43.309Z,2.30
2018-01-01T05:28:17.337Z,2.77
2018-01-01T05:30:48.460Z,1.97
2018-01-01T05:33:27.576Z,2.03
2018-01-01T05:42:05.874Z,2.27
2018-01-01T05:44:54.820Z,1.93
2018-01-01T05:47:26.186Z,1.60
2018-01-01T05:55:47.570Z,1.07
2018-01-01T05:58:17.124Z,2.13
2018-01-01T06:00:47.705Z,1.70
2018-01-01T11:10:41.469Z,3.43
2018-01-01T11:13:14.118Z,2.60
2018-01-01T11:15:57.305Z,3.17
2018-01-01T11:58:00.507Z,3.00
2018-01-01T12:00:28.211Z,2.17
2018-01-01T12:06:07.216Z,2.50
2018-01-01T12:08:35.592Z,2.07
2018-01-01T12:11:06.085Z,3.00
2018-01-01T12:13:33.886Z,2.73
2018-01-01T12:16:01.577Z,3.03
2018-01-01T12:18:31.182Z,2.83
2018-01-01T12:23:36.552Z,2.23
2018-01-01T12:26:07.103Z,2.60
2018-01-01T12:28:36.014Z,1.77
2018-01-01T12:31:05.182Z,2.77
2018-01-01T12:33:35.406Z,2.80
2018-01-01T12:36:04.497Z,1.90
2018-01-01T12:38:33.492Z,3.37
2018-01-01T12:41:02.799Z,2.80
2018-01-01T12:43:33.293Z,2.00
2018-01-01T12:46:01.408Z,2.17
2018-01-01T12:48:30.208Z,2.73
2018-01-01T12:51:02.424Z,2.20
2018-01-01T12:53:30.642Z,2.50
2018-01-01T12:55:59.677Z,2.00
2018-01-01T12:58:33.751Z,1.80
2018-01-01T13:01:06.737Z,1.60
2018-01-01T13:03:35.393Z,1.50
2018-01-01T13:06:04.088Z,2.63
2018-01-01T13:08:38.514Z,2.00
2018-01-01T13:11:32.384Z,2.73
2018-01-01T13:14:16.075Z,1.90
2018-01-01T13:16:44.012Z,1.47
2018-01-01T13:19:11.758Z,1.43
2018-01-01T13:21:39.793Z,2.50
2018-01-01T13:24:10.364Z,2.30
2018-01-01T13:26:38.005Z,1.70
2018-01-01T13:29:05.782Z,1.70
2018-01-01T13:31:34.312Z,2.77
2018-01-01T13:34:02.036Z,1.60
2018-01-01T14:12:47.532Z,1.90
2018-01-01T14:15:16.694Z,2.03
2018-01-01T14:17:47.120Z,3.10
2018-01-01T14:20:14.838Z,2.33
2018-01-01T14:22:47.566Z,1.80
2018-01-01T14:28:36.395Z,2.23
2018-01-01T14:31:08.842Z,2.43
2018-01-01T14:33:36.903Z,2.63
2018-01-01T14:36:12.616Z,2.60
2018-01-01T14:38:53.046Z,2.23
2018-01-01T14:41:20.771Z,1.63
2018-01-01T14:43:52.217Z,2.47
2018-01-01T14:47:15.313Z,3.60
2018-01-01T14:49:59.240Z,9.17
2018-01-01T14:52:31.463Z,8.30
2018-01-01T14:55:01.310Z,2.13
2018-01-01T15:11:22.234Z,5.53
2018-01-01T15:13:55.511Z,3.50
2018-01-01T15:16:23.316Z,3.17
2018-01-01T15:18:51.025Z,7.70
2018-01-01T15:21:18.675Z,4.90
2018-01-01T15:23:46.362Z,4.27
2018-01-01T15:26:14.112Z,1.70
2018-01-01T15:28:41.861Z,2.30
2018-01-01T15:31:09.669Z,3.63
2018-01-01T15:33:37.413Z,43.43
2018-01-01T15:36:06.012Z,10.30
2018-01-01T15:38:34.149Z,13.80
2018-01-01T15:41:02.415Z,4.90
2018-01-01T15:43:30.122Z,12.70
2018-01-01T15:46:00.717Z,4.60
2018-01-01T15:48:28.306Z,3.20
2018-01-01T15:50:56.446Z,3.90
2018-01-01T15:53:24.413Z,6.40
2018-01-01T15:55:52.217Z,9.83
2018-01-01T15:58:20.739Z,12.33
2018-01-01T16:43:58.387Z,3.60
2018-01-01T16:46:28.411Z,3.17
2018-01-01T16:48:56.559Z,10.07
2018-01-01T16:51:24.322Z,7.60
2018-01-01T16:53:51.983Z,5.20
2018-01-01T16:56:19.709Z,10.87
2018-01-01T16:58:47.435Z,17.40
2018-01-01T17:01:15.131Z,5.57
2018-01-01T17:03:43.132Z,9.67
2018-01-01T17:06:11.217Z,11.90
2018-01-01T17:08:41.137Z,14.60
2018-01-01T17:11:08.921Z,23.23
2018-01-01T17:13:37.430Z,26.03
2018-01-01T17:16:09.898Z,16.97
2018-01-01T17:18:37.907Z,7.90
2018-01-01T17:21:05.977Z,22.30
2018-01-01T17:23:33.854Z,29.80
2018-01-01T17:26:01.569Z,15.33
2018-01-01T17:28:29.388Z,16.67
2018-01-01T17:30:57.338Z,8.10
2018-01-01T17:33:32.557Z,15.50
2018-01-01T17:36:02.620Z,9.70
2018-01-01T17:38:30.810Z,9.03
2018-01-01T17:40:58.630Z,8.10
2018-01-01T17:43:26.903Z,5.70
2018-01-01T17:45:54.800Z,4.23
2018-01-01T17:48:22.534Z,3.90
2018-01-01T17:50:50.359Z,4.70
2018-01-01T17:53:18.080Z,5.03
2018-01-01T17:55:45.880Z,5.10
2018-01-01T17:58:13.813Z,5.80
2018-01-01T18:00:41.626Z,5.07
2018-01-01T18:03:11.331Z,22.17
2018-01-01T18:05:39.101Z,13.70
2018-01-01T18:08:08.767Z,6.70
2018-01-01T18:10:36.474Z,5.03
2018-01-01T18:13:04.120Z,5.00
2018-01-01T18:15:31.786Z,5.20
2018-01-01T18:17:59.496Z,5.03
2018-01-01T18:20:27.284Z,3.97
2018-01-01T18:24:13.992Z,7.00
2018-01-01T18:26:41.827Z,8.40
2018-01-01T18:29:09.631Z,7.23
2018-01-01T18:31:37.492Z,7.27
2018-01-01T18:34:05.242Z,4.50
2018-01-01T18:36:33.435Z,6.80
2018-01-01T18:39:01.216Z,5.07
2018-01-01T18:41:29.393Z,4.30
2018-01-01T18:43:57.867Z,3.17
2018-01-01T18:46:26.040Z,3.73
2018-01-01T18:48:55.465Z,4.60
2018-01-01T18:51:23.169Z,5.60
2018-01-01T18:53:51.046Z,8.30
2018-01-01T18:56:18.721Z,8.00
2018-01-01T18:58:46.501Z,5.90
2018-01-01T19:01:15.483Z,8.00
2018-01-01T19:03:43.782Z,7.20
2018-01-01T19:06:11.475Z,3.93
2018-01-01T19:08:39.239Z,3.90
2018-01-01T19:11:08.047Z,5.83
2018-01-01T19:13:35.833Z,5.70
2018-01-01T19:16:03.751Z,5.90
2018-01-01T19:18:31.611Z,8.97
2018-01-01T19:20:59.511Z,4.97
2018-01-01T19:23:27.302Z,6.83
2018-01-01T19:25:55.082Z,8.07
2018-01-01T19:28:22.958Z,7.00
2018-01-01T19:30:50.811Z,11.40
2018-01-01T19:33:21.749Z,10.77
2018-01-01T19:35:49.595Z,7.60
2018-01-01T19:38:18.510Z,8.80
2018-01-01T19:40:46.213Z,8.37
2018-01-01T19:43:13.943Z,8.27
2018-01-01T19:45:42.822Z,7.73
2018-01-01T19:48:10.535Z,6.37
2018-01-01T19:50:38.214Z,5.67
2018-01-01T19:53:06.046Z,6.57
2018-01-01T19:55:33.879Z,6.47
2018-01-01T19:58:01.597Z,5.20
2018-01-01T20:00:29.422Z,3.97
2018-01-01T20:02:57.113Z,4.30
2018-01-01T20:05:26.622Z,4.43
2018-01-01T20:07:57.474Z,5.23
2018-01-01T20:10:27.327Z,4.00
